sensor_id;sensor_type;location;lat;lon;timestamp;pressure;altitude;pressure_sealevel;temperature;humidity
45247;BME280;31529;51.158;7.354;2023-05-12T00:00:13;97715.25;;;14.13;100.00
45247;BME280;31529;51.158;7.354;2023-05-12T00:00:45;97712.06;;;14.11;100.00
45247;BME280;31529;51.158;7.354;2023-05-12T00:01:17;97711.28;;;14.10;100.00
45247;BME280;31529;51.158;7.354;2023-05-12T00:01:49;97705.16;;;14.10;100.00
45247;BME280;31529;51.158;7.354;2023-05-12T00:02:20;97708.13;;;14.08;100.00
45247;BME280;31529;51.158;7.354;2023-05-12T00:02:52;97702.00;;;14.08;100.00
45247;BME280;31529;51.158;7.354;2023-05-12T00:03:23;97696.63;;;14.08;100.00
45247;BME280;31529;51.158;7.354;2023-05-12T00:03:54;97695.03;;;14.06;100.00
45247;BME280;31529;51.158;7.354;2023-05-12T00:04:25;97691.88;;;14.04;100.00
45247;BME280;31529;51.158;7.354;2023-05-12T00:04:56;97689.50;;;14.03;100.00
45247;BME280;31529;51.158;7.354;2023-05-12T00:05:27;97686.34;;;14.01;100.00
45247;BME280;31529;51.158;7.354;2023-05-12T00:05:59;97684.75;;;14.00;100.00
45247;BME280;31529;51.158;7.354;2023-05-12T00:06:33;97683.19;;;13.99;100.00
45247;BME280;31529;51.158;7.354;2023-05-12T00:07:04;97677.81;;;13.99;100.00
45247;BME280;31529;51.158;7.354;2023-05-12T00:07:36;97674.34;;;13.98;100.00
45247;BME280;31529;51.158;7.354;2023-05-12T00:08:07;97676.22;;;13.98;100.00
45247;BME280;31529;51.158;7.354;2023-05-12T00:08:38;97671.97;;;13.97;100.00
45247;BME280;31529;51.158;7.354;2023-05-12T00:09:09;97677.66;;;13.95;100.00
45247;BME280;31529;51.158;7.354;2023-05-12T00:09:40;97680.31;;;13.95;100.00
45247;BME280;31529;51.158;7.354;2023-05-12T00:10:12;97677.66;;;13.95;100.00
45247;BME280;31529;51.158;7.354;2023-05-12T00:10:44;97680.63;;;13.94;100.00
45247;BME280;31529;51.158;7.354;2023-05-12T00:11:15;97687.13;;;13.93;100.00
45247;BME280;31529;51.158;7.354;2023-05-12T00:11:46;97687.13;;;13.93;100.00
45247;BME280;31529;51.158;7.354;2023-05-12T00:12:18;97686.78;;;13.94;100.00
45247;BME280;31529;51.158;7.354;2023-05-12T00:12:49;97691.38;;;13.94;100.00
45247;BME280;31529;51.158;7.354;2023-05-12T00:13:20;97689.47;;;13.94;100.00
45247;BME280;31529;51.158;7.354;2023-05-12T00:13:53;97689.47;;;13.94;100.00
45247;BME280;31529;51.158;7.354;2023-05-12T00:14:25;97698.31;;;13.95;100.00
45247;BME280;31529;51.158;7.354;2023-05-12T00:14:56;97697.50;;;13.94;100.00
45247;BME280;31529;51.158;7.354;2023-05-12T00:15:27;97692.16;;;13.94;100.00
45247;BME280;31529;51.158;7.354;2023-05-12T00:15:58;97695.63;;;13.95;100.00
45247;BME280;31529;51.158;7.354;2023-05-12T00:16:29;97694.03;;;13.94;100.00
45247;BME280;31529;51.158;7.354;2023-05-12T00:17:02;97625.44;;;13.44;100.00
45247;BME280;31529;51.158;7.354;2023-05-12T00:17:37;97697.38;;;13.91;100.00
45247;BME280;31529;51.158;7.354;2023-05-12T00:18:08;97693.41;;;13.88;100.00
45247;BME280;31529;51.158;7.354;2023-05-12T00:18:39;97700.66;;;13.88;100.00
45247;BME280;31529;51.158;7.354;2023-05-12T00:19:10;97699.88;;;13.87;100.00
45247;BME280;31529;51.158;7.354;2023-05-12T00:19:41;97700.47;;;13.84;100.00
45247;BME280;31529;51.158;7.354;2023-05-12T00:20:13;97699.41;;;13.85;100.00
45247;BME280;31529;51.158;7.354;2023-05-12T00:20:44;97692.44;;;13.84;100.00
45247;BME280;31529;51.158;7.354;2023-05-12T00:21:16;97695.91;;;13.84;100.00
45247;BME280;31529;51.158;7.354;2023-05-12T00:21:47;97695.44;;;13.82;100.00
45247;BME280;31529;51.158;7.354;2023-05-12T00:22:18;97700.47;;;13.84;100.00
45247;BME280;31529;51.158;7.354;2023-05-12T00:22:49;97702.38;;;13.83;100.00
45247;BME280;31529;51.158;7.354;2023-05-12T00:23:20;97703.16;;;13.84;100.00
45247;BME280;31529;51.158;7.354;2023-05-12T00:23:52;97700.47;;;13.84;100.00
45247;BME280;31529;51.158;7.354;2023-05-12T00:24:23;97704.75;;;13.85;100.00
45247;BME280;31529;51.158;7.354;2023-05-12T00:24:55;97706.31;;;13.86;100.00
45247;BME280;31529;51.158;7.354;2023-05-12T00:25:26;97705.84;;;13.84;100.00
45247;BME280;31529;51.158;7.354;2023-05-12T00:25:57;97710.13;;;13.85;100.00
45247;BME280;31529;51.158;7.354;2023-05-12T00:26:28;97709.31;;;13.84;100.00
45247;BME280;31529;51.158;7.354;2023-05-12T00:26:59;97711.22;;;13.84;100.00
45247;BME280;31529;51.158;7.354;2023-05-12T00:27:30;97710.44;;;13.83;100.00
45247;BME280;31529;51.158;7.354;2023-05-12T00:28:02;97710.72;;;13.82;100.00
45247;BME280;31529;51.158;7.354;2023-05-12T00:28:33;97715.16;;;13.86;100.00
45247;BME280;31529;51.158;7.354;2023-05-12T00:29:05;97714.84;;;13.88;100.00
45247;BME280;31529;51.158;7.354;2023-05-12T00:29:37;97715.63;;;13.89;100.00
45247;BME280;31529;51.158;7.354;2023-05-12T00:30:08;97715.97;;;13.87;100.00
45247;BME280;31529;51.158;7.354;2023-05-12T00:30:40;97716.28;;;13.85;100.00
45247;BME280;31529;51.158;7.354;2023-05-12T00:31:11;97716.28;;;13.85;100.00
45247;BME280;31529;51.158;7.354;2023-05-12T00:31:42;97720.53;;;13.86;100.00
45247;BME280;31529;51.158;7.354;2023-05-12T00:32:13;97718.66;;;13.87;100.00
45247;BME280;31529;51.158;7.354;2023-05-12T00:32:44;97715.63;;;13.89;100.00
45247;BME280;31529;51.158;7.354;2023-05-12T00:33:16;97716.44;;;13.89;100.00
45247;BME280;31529;51.158;7.354;2023-05-12T00:33:47;97711.88;;;13.90;100.00
45247;BME280;31529;51.158;7.354;2023-05-12T00:34:18;97715.31;;;13.90;100.00
45247;BME280;31529;51.158;7.354;2023-05-12T00:34:49;97710.78;;;13.91;100.00
45247;BME280;31529;51.158;7.354;2023-05-12T00:35:20;97715.31;;;13.90;100.00
45247;BME280;31529;51.158;7.354;2023-05-12T00:35:51;97714.25;;;13.91;100.00
45247;BME280;31529;51.158;7.354;2023-05-12T00:36:23;97716.13;;;13.91;100.00
45247;BME280;31529;51.158;7.354;2023-05-12T00:36:54;97716.91;;;13.91;100.00
45247;BME280;31529;51.158;7.354;2023-05-12T00:37:25;97715.81;;;13.92;100.00
45247;BME280;31529;51.158;7.354;2023-05-12T00:37:56;97716.63;;;13.93;100.00
45247;BME280;31529;51.158;7.354;2023-05-12T00:38:27;97717.41;;;13.93;100.00
45247;BME280;31529;51.158;7.354;2023-05-12T00:38:58;97717.41;;;13.93;100.00
45247;BME280;31529;51.158;7.354;2023-05-12T00:39:29;97720.09;;;13.93;100.00
45247;BME280;31529;51.158;7.354;2023-05-12T00:40:00;97721.66;;;13.94;100.00
45247;BME280;31529;51.158;7.354;2023-05-12T00:40:32;97718.97;;;13.94;100.00
45247;BME280;31529;51.158;7.354;2023-05-12T00:41:03;97721.34;;;13.96;100.00
45247;BME280;31529;51.158;7.354;2023-05-12T00:41:34;97720.56;;;13.95;100.00
45247;BME280;31529;51.158;7.354;2023-05-12T00:42:06;97722.47;;;13.95;100.00
45247;BME280;31529;51.158;7.354;2023-05-12T00:42:37;97720.56;;;13.95;100.00
45247;BME280;31529;51.158;7.354;2023-05-12T00:43:08;97720.56;;;13.95;100.00
45247;BME280;31529;51.158;7.354;2023-05-12T00:43:39;97723.25;;;13.95;100.00
45247;BME280;31529;51.158;7.354;2023-05-12T00:44:10;97716.78;;;13.96;100.00
45247;BME280;31529;51.158;7.354;2023-05-12T00:44:42;97717.56;;;13.97;100.00
45247;BME280;31529;51.158;7.354;2023-05-12T00:45:13;97718.66;;;13.96;100.00
45247;BME280;31529;51.158;7.354;2023-05-12T00:45:44;97721.03;;;13.97;100.00
45247;BME280;31529;51.158;7.354;2023-05-12T00:46:15;97722.16;;;13.96;100.00
45247;BME280;31529;51.158;7.354;2023-05-12T00:46:47;97718.34;;;13.97;100.00
45247;BME280;31529;51.158;7.354;2023-05-12T00:47:19;97722.94;;;13.97;100.00
45247;BME280;31529;51.158;7.354;2023-05-12T00:47:51;97722.63;;;13.98;100.00
45247;BME280;31529;51.158;7.354;2023-05-12T00:48:23;97723.72;;;13.97;100.00
45247;BME280;31529;51.158;7.354;2023-05-12T00:48:54;97719.13;;;13.98;100.00
45247;BME280;31529;51.158;7.354;2023-05-12T00:49:25;97719.94;;;13.98;100.00
45247;BME280;31529;51.158;7.354;2023-05-12T00:49:57;97724.19;;;13.99;100.00
45247;BME280;31529;51.158;7.354;2023-05-12T00:50:28;97723.09;;;14.00;100.00
45247;BME280;31529;51.158;7.354;2023-05-12T00:50:59;97723.09;;;14.00;100.00
45247;BME280;31529;51.158;7.354;2023-05-12T00:51:32;97720.13;;;14.02;100.00
45247;BME280;31529;51.158;7.354;2023-05-12T00:52:03;97719.31;;;14.01;100.00
45247;BME280;31529;51.158;7.354;2023-05-12T00:52:35;97715.53;;;14.02;100.00
45247;BME280;31529;51.158;7.354;2023-05-12T00:53:07;97716.31;;;14.03;100.00
45247;BME280;31529;51.158;7.354;2023-05-12T00:53:39;97714.41;;;14.03;100.00
45247;BME280;31529;51.158;7.354;2023-05-12T00:54:11;97719.00;;;14.03;100.00
45247;BME280;31529;51.158;7.354;2023-05-12T00:54:42;97717.09;;;14.03;100.00
45247;BME280;31529;51.158;7.354;2023-05-12T00:55:14;97711.75;;;14.03;100.00
45247;BME280;31529;51.158;7.354;2023-05-12T00:55:45;97718.69;;;14.04;100.00
45247;BME280;31529;51.158;7.354;2023-05-12T00:56:17;97717.91;;;14.04;100.00
45247;BME280;31529;51.158;7.354;2023-05-12T00:56:49;97716.31;;;14.03;100.00
45247;BME280;31529;51.158;7.354;2023-05-12T00:57:21;97715.53;;;14.02;100.00
45247;BME280;31529;51.158;7.354;2023-05-12T00:57:55;97711.75;;;14.03;100.00
45247;BME280;31529;51.158;7.354;2023-05-12T00:58:26;97711.75;;;14.03;100.00
45247;BME280;31529;51.158;7.354;2023-05-12T00:58:57;97713.34;;;14.04;100.00
45247;BME280;31529;51.158;7.354;2023-05-12T00:59:28;97716.78;;;14.05;100.00
45247;BME280;31529;51.158;7.354;2023-05-12T00:59:59;97714.13;;;14.05;100.00
45247;BME280;31529;51.158;7.354;2023-05-12T01:00:30;97716.00;;;14.04;100.00
45247;BME280;31529;51.158;7.354;2023-05-12T01:01:01;97713.34;;;14.04;100.00
45247;BME280;31529;51.158;7.354;2023-05-12T01:01:33;97713.34;;;14.04;100.00
45247;BME280;31529;51.158;7.354;2023-05-12T01:02:04;97719.78;;;14.03;100.00
45247;BME280;31529;51.158;7.354;2023-05-12T01:02:37;97715.22;;;14.04;100.00
45247;BME280;31529;51.158;7.354;2023-05-12T01:03:08;97706.38;;;14.03;100.00
45247;BME280;31529;51.158;7.354;2023-05-12T01:03:39;97707.97;;;14.04;100.00
45247;BME280;31529;51.158;7.354;2023-05-12T01:04:11;97710.97;;;14.03;100.00
45247;BME280;31529;51.158;7.354;2023-05-12T01:04:42;97715.53;;;14.02;100.00
45247;BME280;31529;51.158;7.354;2023-05-12T01:05:13;97719.00;;;14.03;100.00
45247;BME280;31529;51.158;7.354;2023-05-12T01:06:00;97713.94;;;14.01;100.00
45247;BME280;31529;51.158;7.354;2023-05-12T01:07:02;97704.81;;;14.02;100.00
45247;BME280;31529;51.158;7.354;2023-05-12T01:07:37;97704.81;;;14.02;100.00
45247;BME280;31529;51.158;7.354;2023-05-12T01:08:09;97704.03;;;14.02;100.00
45247;BME280;31529;51.158;7.354;2023-05-12T01:08:41;97706.38;;;14.03;100.00
45247;BME280;31529;51.158;7.354;2023-05-12T01:09:12;97709.06;;;14.03;100.00
45247;BME280;31529;51.158;7.354;2023-05-12T01:09:44;97705.28;;;14.04;100.00
45247;BME280;31529;51.158;7.354;2023-05-12T01:10:16;97708.75;;;14.05;100.00
45247;BME280;31529;51.158;7.354;2023-05-12T01:10:50;97706.06;;;14.05;100.00
45247;BME280;31529;51.158;7.354;2023-05-12T01:11:22;97706.06;;;14.05;100.00
45247;BME280;31529;51.158;7.354;2023-05-12T01:11:53;97711.91;;;14.07;100.00
45247;BME280;31529;51.158;7.354;2023-05-12T01:12:25;97710.81;;;14.08;100.00
45247;BME280;31529;51.158;7.354;2023-05-12T01:12:57;97706.25;;;14.09;100.00
45247;BME280;31529;51.158;7.354;2023-05-12T01:13:28;97713.19;;;14.10;100.00
45247;BME280;31529;51.158;7.354;2023-05-12T01:13:59;97712.06;;;14.11;100.00
45247;BME280;31529;51.158;7.354;2023-05-12T01:14:31;97712.06;;;14.11;100.00
45247;BME280;31529;51.158;7.354;2023-05-12T01:15:03;97714.47;;;14.12;100.00
45247;BME280;31529;51.158;7.354;2023-05-12T01:15:35;97717.91;;;14.13;100.00
45247;BME280;31529;51.158;7.354;2023-05-12T01:16:09;97713.66;;;14.12;100.00
45247;BME280;31529;51.158;7.354;2023-05-12T01:16:52;97712.56;;;14.13;100.00
45247;BME280;31529;51.158;7.354;2023-05-12T01:17:27;97707.50;;;14.11;100.00
45247;BME280;31529;51.158;7.354;2023-05-12T01:18:02;97715.25;;;14.13;100.00
45247;BME280;31529;51.158;7.354;2023-05-12T01:18:37;97711.78;;;14.12;100.00
45247;BME280;31529;51.158;7.354;2023-05-12T01:19:13;97719.03;;;14.12;100.00
45247;BME280;31529;51.158;7.354;2023-05-12T01:20:06;97709.41;;;14.11;100.00
45247;BME280;31529;51.158;7.354;2023-05-12T01:20:38;97719.03;;;14.12;100.00
45247;BME280;31529;51.158;7.354;2023-05-12T01:21:12;97717.91;;;14.13;100.00
45247;BME280;31529;51.158;7.354;2023-05-12T01:21:43;97709.88;;;14.13;100.00
45247;BME280;31529;51.158;7.354;2023-05-12T01:22:15;97712.56;;;14.13;100.00
45247;BME280;31529;51.158;7.354;2023-05-12T01:22:47;97711.47;;;14.14;100.00
45247;BME280;31529;51.158;7.354;2023-05-12T01:23:19;97711.47;;;14.14;100.00
45247;BME280;31529;51.158;7.354;2023-05-12T01:23:55;97710.34;;;14.15;100.00
45247;BME280;31529;51.158;7.354;2023-05-12T01:24:31;97713.84;;;14.15;100.00
45247;BME280;31529;51.158;7.354;2023-05-12T01:25:07;97703.25;;;14.10;100.00
45247;BME280;31529;51.158;7.354;2023-05-12T01:25:41;97707.34;;;14.16;100.00
45247;BME280;31529;51.158;7.354;2023-05-12T01:26:14;97705.47;;;14.17;100.00
45247;BME280;31529;51.158;7.354;2023-05-12T01:26:45;97709.25;;;14.16;100.00
45247;BME280;31529;51.158;7.354;2023-05-12T01:27:16;97713.50;;;14.17;100.00
45247;BME280;31529;51.158;7.354;2023-05-12T01:27:49;97718.88;;;14.17;100.00
45247;BME280;31529;51.158;7.354;2023-05-12T01:28:20;97710.03;;;14.16;100.00
45247;BME280;31529;51.158;7.354;2023-05-12T01:28:51;97712.09;;;14.19;100.00
45247;BME280;31529;51.158;7.354;2023-05-12T01:29:24;97711.00;;;14.20;100.00
45247;BME280;31529;51.158;7.354;2023-05-12T01:29:57;97713.97;;;14.19;100.00
45247;BME280;31529;51.158;7.354;2023-05-12T01:30:30;97713.50;;;14.17;100.00
45247;BME280;31529;51.158;7.354;2023-05-12T01:31:04;97596.91;;;13.39;100.00
45247;BME280;31529;51.158;7.354;2023-05-12T01:31:38;97713.84;;;14.15;100.00
45247;BME280;31529;51.158;7.354;2023-05-12T01:32:09;97713.03;;;14.15;100.00
45247;BME280;31529;51.158;7.354;2023-05-12T01:32:40;97713.84;;;14.15;100.00
45247;BME280;31529;51.158;7.354;2023-05-12T01:33:11;97711.28;;;14.19;100.00
45247;BME280;31529;51.158;7.354;2023-05-12T01:33:43;97717.16;;;14.21;100.00
45247;BME280;31529;51.158;7.354;2023-05-12T01:34:14;97712.59;;;14.21;100.00
45247;BME280;31529;51.158;7.354;2023-05-12T01:34:48;97709.91;;;14.21;100.00
45247;BME280;31529;51.158;7.354;2023-05-12T01:35:20;97709.13;;;14.21;100.00
45247;BME280;31529;51.158;7.354;2023-05-12T01:35:51;97716.06;;;14.22;100.00
45247;BME280;31529;51.158;7.354;2023-05-12T01:36:22;97707.22;;;14.21;100.00
45247;BME280;31529;51.158;7.354;2023-05-12T01:36:53;97709.13;;;14.21;100.00
45247;BME280;31529;51.158;7.354;2023-05-12T01:37:24;97644.94;;;13.76;100.00
45247;BME280;31529;51.158;7.354;2023-05-12T01:37:56;97716.06;;;14.22;100.00
45247;BME280;31529;51.158;7.354;2023-05-12T01:38:27;97710.69;;;14.22;100.00
45247;BME280;31529;51.158;7.354;2023-05-12T01:38:58;97714.16;;;14.22;100.00
45247;BME280;31529;51.158;7.354;2023-05-12T01:39:29;97709.91;;;14.21;100.00
45247;BME280;31529;51.158;7.354;2023-05-12T01:40:00;97710.69;;;14.22;100.00
45247;BME280;31529;51.158;7.354;2023-05-12T01:40:32;97714.97;;;14.23;100.00
45247;BME280;31529;51.158;7.354;2023-05-12T01:41:03;97599.59;;;13.48;100.00
45247;BME280;31529;51.158;7.354;2023-05-12T01:41:34;97713.06;;;14.23;100.00
45247;BME280;31529;51.158;7.354;2023-05-12T01:42:05;97711.16;;;14.24;100.00
45247;BME280;31529;51.158;7.354;2023-05-12T01:42:40;97715.44;;;14.25;100.00
45247;BME280;31529;51.158;7.354;2023-05-12T01:43:12;97718.91;;;14.25;100.00
45247;BME280;31529;51.158;7.354;2023-05-12T01:43:43;97716.22;;;14.25;100.00
45247;BME280;31529;51.158;7.354;2023-05-12T01:44:14;97713.84;;;14.24;100.00
45247;BME280;31529;51.158;7.354;2023-05-12T01:44:45;97715.75;;;14.23;100.00
45247;BME280;31529;51.158;7.354;2023-05-12T01:45:16;97711.16;;;14.24;100.00
45247;BME280;31529;51.158;7.354;2023-05-12T01:45:47;97717.66;;;14.23;100.00
45247;BME280;31529;51.158;7.354;2023-05-12T01:46:18;97718.72;;;14.22;100.00
45247;BME280;31529;51.158;7.354;2023-05-12T01:46:49;97716.06;;;14.22;100.00
45247;BME280;31529;51.158;7.354;2023-05-12T01:47:20;97719.03;;;14.20;100.00
45247;BME280;31529;51.158;7.354;2023-05-12T01:47:51;97718.25;;;14.20;100.00
45247;BME280;31529;51.158;7.354;2023-05-12T01:48:23;97722.03;;;14.19;100.00
45247;BME280;31529;51.158;7.354;2023-05-12T01:48:54;97716.19;;;14.17;100.00
45247;BME280;31529;51.158;7.354;2023-05-12T01:49:25;97721.56;;;14.17;100.00
45247;BME280;31529;51.158;7.354;2023-05-12T01:49:56;97722.69;;;14.16;100.00
45247;BME280;31529;51.158;7.354;2023-05-12T01:50:27;97727.56;;;14.14;100.00
45247;BME280;31529;51.158;7.354;2023-05-12T01:50:58;97716.34;;;14.12;100.00
45247;BME280;31529;51.158;7.354;2023-05-12T01:51:30;97721.72;;;14.12;100.00
45247;BME280;31529;51.158;7.354;2023-05-12T01:52:01;97728.19;;;14.11;100.00
45247;BME280;31529;51.158;7.354;2023-05-12T01:52:33;97725.50;;;14.11;100.00
45247;BME280;31529;51.158;7.354;2023-05-12T01:53:04;97721.25;;;14.10;100.00
45247;BME280;31529;51.158;7.354;2023-05-12T01:53:35;97718.09;;;14.08;100.00
45247;BME280;31529;51.158;7.354;2023-05-12T01:54:06;97723.44;;;14.08;100.00
45247;BME280;31529;51.158;7.354;2023-05-12T01:54:37;97721.84;;;14.06;100.00
45247;BME280;31529;51.158;7.354;2023-05-12T01:55:08;97716.78;;;14.05;100.00
45247;BME280;31529;51.158;7.354;2023-05-12T01:55:40;97715.22;;;14.04;100.00
45247;BME280;31529;51.158;7.354;2023-05-12T01:56:11;97714.41;;;14.03;100.00
45247;BME280;31529;51.158;7.354;2023-05-12T01:56:43;97720.91;;;14.02;100.00
45247;BME280;31529;51.158;7.354;2023-05-12T01:57:14;97724.69;;;14.01;100.00
45247;BME280;31529;51.158;7.354;2023-05-12T01:57:45;97717.75;;;14.00;100.00
45247;BME280;31529;51.158;7.354;2023-05-12T01:58:16;97714.09;;;13.96;100.00
45247;BME280;31529;51.158;7.354;2023-05-12T01:58:49;97715.19;;;13.95;100.00
45247;BME280;31529;51.158;7.354;2023-05-12T01:59:20;97715.19;;;13.95;100.00
45247;BME280;31529;51.158;7.354;2023-05-12T01:59:51;97716.28;;;13.94;100.00
45247;BME280;31529;51.158;7.354;2023-05-12T02:00:22;97714.41;;;13.95;100.00
45247;BME280;31529;51.158;7.354;2023-05-12T02:00:53;97719.13;;;13.98;100.00
45247;BME280;31529;51.158;7.354;2023-05-12T02:01:24;97718.53;;;14.01;100.00
45247;BME280;31529;51.158;7.354;2023-05-12T02:01:58;97711.09;;;13.98;100.00
45247;BME280;31529;51.158;7.354;2023-05-12T02:02:29;97721.03;;;13.97;100.00
45247;BME280;31529;51.158;7.354;2023-05-12T02:03:01;97715.84;;;14.01;100.00
45247;BME280;31529;51.158;7.354;2023-05-12T02:03:32;97717.09;;;14.03;100.00
45247;BME280;31529;51.158;7.354;2023-05-12T02:04:03;97721.69;;;14.03;100.00
45247;BME280;31529;51.158;7.354;2023-05-12T02:04:34;97718.53;;;14.01;100.00
45247;BME280;31529;51.158;7.354;2023-05-12T02:05:06;97720.44;;;14.00;100.00
45247;BME280;31529;51.158;7.354;2023-05-12T02:05:37;97731.50;;;14.08;100.00
45247;BME280;31529;51.158;7.354;2023-05-12T02:06:09;97718.56;;;14.10;100.00
45247;BME280;31529;51.158;7.354;2023-05-12T02:06:40;97728.66;;;14.13;100.00
45247;BME280;31529;51.158;7.354;2023-05-12T02:07:11;97722.19;;;14.14;100.00
45247;BME280;31529;51.158;7.354;2023-05-12T02:07:42;97720.59;;;14.13;100.00
45247;BME280;31529;51.158;7.354;2023-05-12T02:08:13;97722.19;;;14.14;100.00
45247;BME280;31529;51.158;7.354;2023-05-12T02:08:44;97726.44;;;14.15;100.00
45247;BME280;31529;51.158;7.354;2023-05-12T02:09:15;97726.44;;;14.15;100.00
45247;BME280;31529;51.158;7.354;2023-05-12T02:09:46;97722.97;;;14.14;100.00
45247;BME280;31529;51.158;7.354;2023-05-12T02:10:18;97721.91;;;14.15;100.00
45247;BME280;31529;51.158;7.354;2023-05-12T02:10:49;97725.34;;;14.16;100.00
45247;BME280;31529;51.158;7.354;2023-05-12T02:11:20;97721.56;;;14.17;100.00
45247;BME280;31529;51.158;7.354;2023-05-12T02:11:51;97721.56;;;14.17;100.00
45247;BME280;31529;51.158;7.354;2023-05-12T02:12:23;97725.53;;;14.19;100.00
45247;BME280;31529;51.158;7.354;2023-05-12T02:12:54;97720.94;;;14.20;100.00
45247;BME280;31529;51.158;7.354;2023-05-12T02:13:25;97719.84;;;14.21;100.00
45247;BME280;31529;51.158;7.354;2023-05-12T02:13:56;97718.72;;;14.22;100.00
45247;BME280;31529;51.158;7.354;2023-05-12T02:14:28;97686.66;;;13.99;100.00
45247;BME280;31529;51.158;7.354;2023-05-12T02:14:59;97726.00;;;14.21;100.00
45247;BME280;31529;51.158;7.354;2023-05-12T02:15:30;97721.41;;;14.22;100.00
45247;BME280;31529;51.158;7.354;2023-05-12T02:16:01;97716.06;;;14.22;100.00
45247;BME280;31529;51.158;7.354;2023-05-12T02:16:32;97720.63;;;14.21;100.00
45247;BME280;31529;51.158;7.354;2023-05-12T02:17:03;97724.09;;;14.22;100.00
45247;BME280;31529;51.158;7.354;2023-05-12T02:17:35;97719.84;;;14.21;100.00
45247;BME280;31529;51.158;7.354;2023-05-12T02:18:06;97722.53;;;14.21;100.00
45247;BME280;31529;51.158;7.354;2023-05-12T02:18:37;97724.41;;;14.20;100.00
45247;BME280;31529;51.158;7.354;2023-05-12T02:19:08;97720.16;;;14.19;100.00
45247;BME280;31529;51.158;7.354;2023-05-12T02:19:40;97719.34;;;14.19;100.00
45247;BME280;31529;51.158;7.354;2023-05-12T02:20:11;97723.16;;;14.18;100.00
45247;BME280;31529;51.158;7.354;2023-05-12T02:20:42;97720.47;;;14.18;100.00
45247;BME280;31529;51.158;7.354;2023-05-12T02:21:13;97723.47;;;14.16;100.00
45247;BME280;31529;51.158;7.354;2023-05-12T02:21:44;97726.91;;;14.17;100.00
45247;BME280;31529;51.158;7.354;2023-05-12T02:22:15;97714.63;;;14.16;100.00
45247;BME280;31529;51.158;7.354;2023-05-12T02:22:46;97716.84;;;14.14;100.00
45247;BME280;31529;51.158;7.354;2023-05-12T02:23:17;97716.84;;;14.14;100.00
45247;BME280;31529;51.158;7.354;2023-05-12T02:23:49;97723.75;;;14.15;100.00
45247;BME280;31529;51.158;7.354;2023-05-12T02:24:20;97721.38;;;14.13;100.00
45247;BME280;31529;51.158;7.354;2023-05-12T02:24:51;97715.25;;;14.13;100.00
45247;BME280;31529;51.158;7.354;2023-05-12T02:25:22;97718.69;;;14.13;100.00
45247;BME280;31529;51.158;7.354;2023-05-12T02:25:53;97712.06;;;14.11;100.00
45247;BME280;31529;51.158;7.354;2023-05-12T02:26:24;97718.22;;;14.11;100.00
45247;BME280;31529;51.158;7.354;2023-05-12T02:26:55;97720.13;;;14.11;100.00
45247;BME280;31529;51.158;7.354;2023-05-12T02:27:26;97709.69;;;14.09;100.00
45247;BME280;31529;51.158;7.354;2023-05-12T02:27:58;97721.25;;;14.10;100.00
45247;BME280;31529;51.158;7.354;2023-05-12T02:28:29;97715.88;;;14.10;100.00
45247;BME280;31529;51.158;7.354;2023-05-12T02:29:00;97716.66;;;14.10;100.00
45247;BME280;31529;51.158;7.354;2023-05-12T02:29:31;97725.03;;;14.09;100.00
45247;BME280;31529;51.158;7.354;2023-05-12T02:30:02;97719.66;;;14.09;100.00
45247;BME280;31529;51.158;7.354;2023-05-12T02:30:34;97716.97;;;14.09;100.00
45247;BME280;31529;51.158;7.354;2023-05-12T02:31:05;97714.28;;;14.09;100.00
45247;BME280;31529;51.158;7.354;2023-05-12T02:31:36;97718.88;;;14.08;100.00
45247;BME280;31529;51.158;7.354;2023-05-12T02:32:07;97715.72;;;14.06;100.00
45247;BME280;31529;51.158;7.354;2023-05-12T02:32:38;97715.22;;;14.04;100.00
45247;BME280;31529;51.158;7.354;2023-05-12T02:33:10;97721.69;;;14.03;100.00
45247;BME280;31529;51.158;7.354;2023-05-12T02:33:41;97724.69;;;14.01;100.00
45247;BME280;31529;51.158;7.354;2023-05-12T02:34:12;97718.53;;;14.01;100.00
45247;BME280;31529;51.158;7.354;2023-05-12T02:34:44;97719.63;;;14.00;100.00
45247;BME280;31529;51.158;7.354;2023-05-12T02:35:15;97719.63;;;14.00;100.00
45247;BME280;31529;51.158;7.354;2023-05-12T02:35:46;97719.94;;;13.98;100.00
45247;BME280;31529;51.158;7.354;2023-05-12T02:36:17;97720.72;;;13.99;100.00
45247;BME280;31529;51.158;7.354;2023-05-12T02:36:48;97719.13;;;13.98;100.00
45247;BME280;31529;51.158;7.354;2023-05-12T02:37:20;97713.00;;;13.97;100.00
45247;BME280;31529;51.158;7.354;2023-05-12T02:37:51;97713.78;;;13.98;100.00
45247;BME280;31529;51.158;7.354;2023-05-12T02:38:22;97718.34;;;13.97;100.00
45247;BME280;31529;51.158;7.354;2023-05-12T02:38:53;97718.34;;;13.97;100.00
45247;BME280;31529;51.158;7.354;2023-05-12T02:39:24;97716.78;;;13.96;100.00
45247;BME280;31529;51.158;7.354;2023-05-12T02:39:55;97717.56;;;13.97;100.00
45247;BME280;31529;51.158;7.354;2023-05-12T02:40:26;97719.47;;;13.96;100.00
45247;BME280;31529;51.158;7.354;2023-05-12T02:40:57;97710.91;;;13.94;100.00
45247;BME280;31529;51.158;7.354;2023-05-12T02:41:28;97713.59;;;13.94;100.00
45247;BME280;31529;51.158;7.354;2023-05-12T02:41:59;97705.72;;;13.89;100.00
45247;BME280;31529;51.158;7.354;2023-05-12T02:42:31;97713.13;;;13.92;100.00
45247;BME280;31529;51.158;7.354;2023-05-12T02:43:05;97711.09;;;13.89;100.00
45247;BME280;31529;51.158;7.354;2023-05-12T02:43:36;97707.94;;;13.87;100.00
45247;BME280;31529;51.158;7.354;2023-05-12T02:44:07;97708.41;;;13.89;100.00
45247;BME280;31529;51.158;7.354;2023-05-12T02:44:39;97708.88;;;13.91;100.00
45247;BME280;31529;51.158;7.354;2023-05-12T02:45:10;97711.56;;;13.91;100.00
45247;BME280;31529;51.158;7.354;2023-05-12T02:45:41;97712.66;;;13.90;100.00
45247;BME280;31529;51.158;7.354;2023-05-12T02:46:12;97706.97;;;13.92;100.00